Time;durP1;ratioP1;P1;durP2;ratioP2;P2;SDS_P1;SDS_P2;PMS_P1;PMS_P2;Temp;Humidity;BMP_temperature;BMP_pressure;BME280_temperature;BME280_humidity;BME280_pressure;Samples;Min_cycle;Max_cycle;Signal;HPM_P1;HPM_P2
2023/12/18 00:02:18;;;;;;;7.85;2.95;;;;;;;-144.57;100.00;62443.72;5033176;28;20053;-57
2023/12/18 00:04:44;;;;;;;6.80;3.00;;;;;;;-144.57;100.00;62443.72;5014978;28;20095;-57
2023/12/18 00:07:09;;;;;;;10.38;3.58;;;;;;;-144.57;100.00;62443.72;5033100;28;20042;-58
2023/12/18 00:09:35;;;;;;;9.88;3.83;;;;;;;-144.57;100.00;62443.72;5031766;28;20080;-59
2023/12/18 00:12:01;;;;;;;17.30;7.00;;;;;;;-144.57;100.00;62443.72;5014611;28;20411;-58
2023/12/18 00:14:27;;;;;;;21.52;6.82;;;;;;;-144.57;100.00;62443.72;5032986;28;20091;-59
2023/12/18 00:16:52;;;;;;;28.85;10.40;;;;;;;-144.57;100.00;62443.72;5032841;28;20038;-59
2023/12/18 00:19:18;;;;;;;21.55;8.70;;;;;;;-144.57;100.00;62443.72;5014683;28;20050;-58
2023/12/18 00:21:44;;;;;;;19.80;7.75;;;;;;;-144.57;100.00;62443.72;5014829;28;20037;-58
2023/12/18 00:24:10;;;;;;;12.77;6.40;;;;;;;-144.57;100.00;62443.72;5032949;28;20092;-54
2023/12/18 00:26:35;;;;;;;27.92;9.52;;;;;;;-144.57;100.00;62443.72;5014990;28;20041;-59
2023/12/18 00:29:01;;;;;;;25.60;9.38;;;;;;;-144.57;100.00;62443.72;5032862;28;20048;-58
2023/12/18 00:31:27;;;;;;;14.57;7.38;;;;;;;-144.57;100.00;62443.72;5032243;28;20072;-57
2023/12/18 00:33:52;;;;;;;16.13;6.55;;;;;;;-144.57;100.00;62443.72;5032700;28;20518;-58
2023/12/18 00:36:18;;;;;;;9.98;4.07;;;;;;;-144.57;100.00;62443.72;4982280;28;20113;-58
2023/12/18 00:38:44;;;;;;;7.10;3.92;;;;;;;-144.57;100.00;62443.72;5032390;28;20073;-54
2023/12/18 00:41:09;;;;;;;7.50;3.53;;;;;;;-144.57;100.00;62443.72;5031839;28;20598;-58
2023/12/18 00:43:35;;;;;;;7.25;2.22;;;;;;;-144.57;100.00;62443.72;5032435;28;20045;-59
2023/12/18 00:46:04;;;;;;;7.18;2.00;;;;;;;-144.57;100.00;62443.72;5014256;28;20041;-59
2023/12/18 00:48:29;;;;;;;5.28;2.13;;;;;;;-144.57;100.00;62443.72;4997800;28;20148;-59
2023/12/18 00:50:55;;;;;;;4.15;1.77;;;;;;;-144.57;100.00;62443.72;5031654;28;20128;-59
2023/12/18 00:53:21;;;;;;;4.97;2.22;;;;;;;-144.57;100.00;62443.72;5013744;28;20042;-58
2023/12/18 00:55:46;;;;;;;17.33;4.07;;;;;;;-144.57;100.00;62443.72;5032736;28;20041;-60
2023/12/18 00:58:12;;;;;;;16.38;5.03;;;;;;;-144.57;100.00;62443.72;5032221;28;20641;-58
2023/12/18 01:00:38;;;;;;;17.88;5.80;;;;;;;-144.57;100.00;62443.72;5014098;28;20041;-60
2023/12/18 01:03:04;;;;;;;22.42;8.10;;;;;;;-144.57;100.00;62443.72;5032254;28;20140;-58
2023/12/18 01:05:30;;;;;;;13.05;5.00;;;;;;;-144.57;100.00;62443.72;5032132;28;20136;-58
2023/12/18 01:07:56;;;;;;;8.27;4.30;;;;;;;-144.57;100.00;62443.72;5031734;28;20042;-58
2023/12/18 01:10:23;;;;;;;6.18;2.72;;;;;;;-144.57;100.00;62443.72;5014028;28;20037;-58
2023/12/18 01:12:49;;;;;;;11.10;2.75;;;;;;;-144.57;100.00;62443.72;5013814;28;20503;-60
2023/12/18 01:15:14;;;;;;;6.55;2.30;;;;;;;-144.57;100.00;62443.72;4997592;28;20045;-58
2023/12/18 01:17:40;;;;;;;3.83;1.60;;;;;;;-144.57;100.00;62443.72;5031561;28;20111;-58
2023/12/18 01:20:07;;;;;;;6.05;2.17;;;;;;;-144.57;100.00;62443.72;5031403;28;20049;-59
2023/12/18 01:22:32;;;;;;;5.65;1.70;;;;;;;-144.57;100.00;62443.72;5031482;28;20048;-58
2023/12/18 01:24:59;;;;;;;6.18;1.88;;;;;;;-144.57;100.00;62443.72;5031595;28;20461;-59
2023/12/18 01:27:25;;;;;;;5.72;1.73;;;;;;;-144.57;100.00;62443.72;5031285;28;20482;-57
2023/12/18 01:29:51;;;;;;;3.15;1.35;;;;;;;-144.57;100.00;62443.72;5031113;28;20048;-59
2023/12/18 01:32:17;;;;;;;3.08;1.90;;;;;;;-144.57;100.00;62443.72;5031396;28;20057;-58
2023/12/18 01:34:43;;;;;;;6.70;1.63;;;;;;;-144.57;100.00;62443.72;5031448;28;20075;-57
2023/12/18 01:37:08;;;;;;;4.72;1.75;;;;;;;-144.57;100.00;62443.72;5013747;28;20387;-58
2023/12/18 01:39:36;;;;;;;3.42;1.40;;;;;;;-144.57;100.00;62443.72;5013285;28;20388;-60
2023/12/18 01:42:02;;;;;;;5.90;1.73;;;;;;;-144.57;100.00;62443.72;5013717;28;20041;-59
2023/12/18 01:44:28;;;;;;;4.18;1.52;;;;;;;-144.57;100.00;62443.72;5013563;28;20129;-59
2023/12/18 01:46:54;;;;;;;6.03;1.60;;;;;;;-144.57;100.00;62443.72;5013267;28;20060;-60
2023/12/18 01:49:20;;;;;;;4.97;1.58;;;;;;;-144.57;100.00;62443.72;5031480;28;20049;-57
2023/12/18 01:51:46;;;;;;;3.53;1.65;;;;;;;-144.57;100.00;62443.72;4980828;28;20033;-57
2023/12/18 01:54:12;;;;;;;6.80;1.70;;;;;;;-144.57;100.00;62443.72;5013266;28;20041;-57
2023/12/18 01:56:38;;;;;;;3.30;1.40;;;;;;;-144.57;100.00;62443.72;5013284;28;20045;-58
2023/12/18 01:59:05;;;;;;;4.20;1.55;;;;;;;-144.57;100.00;62443.72;5031247;28;20037;-59
2023/12/18 02:01:31;;;;;;;2.60;1.67;;;;;;;-144.57;100.00;62443.72;5031063;28;20356;-58
2023/12/18 02:03:57;;;;;;;6.72;1.88;;;;;;;-144.57;100.00;62443.72;5034685;28;20038;-58
2023/12/18 02:06:23;;;;;;;6.80;1.90;;;;;;;-144.57;100.00;62443.72;5037591;28;20075;-57
2023/12/18 02:08:49;;;;;;;8.55;1.92;;;;;;;-144.57;100.00;62443.72;5037852;28;20079;-58
2023/12/18 02:11:15;;;;;;;5.95;1.70;;;;;;;-144.57;100.00;62443.72;5037644;28;20079;-59
2023/12/18 02:13:41;;;;;;;4.07;1.58;;;;;;;-144.57;100.00;62443.72;5019986;28;20041;-58
2023/12/18 02:16:07;;;;;;;8.15;2.00;;;;;;;-144.57;100.00;62443.72;5037457;28;20045;-56
2023/12/18 02:18:33;;;;;;;3.22;1.40;;;;;;;-144.57;100.00;62443.72;5019668;28;20207;-59
2023/12/18 02:20:59;;;;;;;11.00;1.65;;;;;;;-144.57;100.00;62443.72;5037550;28;20128;-58
2023/12/18 02:23:25;;;;;;;7.80;2.10;;;;;;;-144.57;100.00;62443.72;5019525;28;20056;-57
2023/12/18 02:25:51;;;;;;;5.45;1.90;;;;;;;-144.57;100.00;62443.72;5039506;28;20037;-59
2023/12/18 02:28:17;;;;;;;9.05;1.80;;;;;;;-144.57;100.00;62443.72;5023269;28;20175;-58
2023/12/18 02:30:43;;;;;;;4.93;1.70;;;;;;;-144.57;100.00;62443.72;5057809;28;20086;-58
2023/12/18 02:33:10;;;;;;;6.75;2.70;;;;;;;-144.57;100.00;62443.72;5039650;28;20048;-57
2023/12/18 02:35:36;;;;;;;3.30;1.88;;;;;;;-144.57;100.00;62443.72;5039715;28;20532;-58
2023/12/18 02:38:02;;;;;;;9.48;1.95;;;;;;;-144.57;100.00;62443.72;5057793;28;20052;-59
2023/12/18 02:40:27;;;;;;;5.57;1.80;;;;;;;-144.57;100.00;62443.72;5039620;28;20099;-58
2023/12/18 02:42:53;;;;;;;6.40;2.00;;;;;;;-144.57;100.00;62443.72;5039558;28;20041;-58
2023/12/18 02:45:19;;;;;;;1.95;1.55;;;;;;;-144.57;100.00;62443.72;5040093;28;20431;-59
2023/12/18 02:47:45;;;;;;;3.63;1.80;;;;;;;-144.57;100.00;62443.72;5054663;28;20052;-57
2023/12/18 02:50:11;;;;;;;5.25;2.05;;;;;;;-144.57;100.00;62443.72;5019772;28;20510;-57
2023/12/18 02:52:37;;;;;;;6.28;2.20;;;;;;;-144.57;100.00;62443.72;5037471;28;20065;-56
2023/12/18 02:55:03;;;;;;;2.97;1.60;;;;;;;-144.57;100.00;62443.72;5037407;28;20128;-56
2023/12/18 02:57:31;;;;;;;5.18;2.00;;;;;;;-144.57;100.00;62443.72;5037580;28;20048;-58
2023/12/18 02:59:57;;;;;;;4.72;1.83;;;;;;;-144.57;100.00;62443.72;5037699;28;20629;-59
2023/12/18 03:02:23;;;;;;;4.22;1.73;;;;;;;-144.57;100.00;62443.72;5019979;28;20134;-59
2023/12/18 03:04:49;;;;;;;5.63;2.00;;;;;;;-144.57;100.00;62443.72;5037690;28;20040;-59
2023/12/18 03:07:14;;;;;;;7.65;1.83;;;;;;;-144.57;100.00;62443.72;5057249;28;20045;-58
2023/12/18 03:09:40;;;;;;;2.40;1.55;;;;;;;-144.57;100.00;62443.72;5039707;28;20098;-58
2023/12/18 03:12:06;;;;;;;5.38;1.75;;;;;;;-144.57;100.00;62443.72;5057918;28;20044;-57
2023/12/18 03:14:32;;;;;;;15.13;2.83;;;;;;;-144.57;100.00;62443.72;5038863;28;20387;-56
2023/12/18 03:16:58;;;;;;;12.98;2.85;;;;;;;-144.57;100.00;62443.72;5019691;28;20128;-57
2023/12/18 03:19:23;;;;;;;9.55;2.72;;;;;;;-144.57;100.00;62443.72;5036167;28;20044;-58
2023/12/18 03:21:49;;;;;;;6.57;3.03;;;;;;;-144.57;100.00;62443.72;5019954;28;20048;-59
2023/12/18 03:24:15;;;;;;;9.38;2.75;;;;;;;-144.57;100.00;62443.72;5036247;28;20106;-58
2023/12/18 03:26:41;;;;;;;8.02;2.05;;;;;;;-144.57;100.00;62443.72;5053898;28;20089;-59
2023/12/18 03:29:07;;;;;;;7.55;2.42;;;;;;;-144.57;100.00;62443.72;5054291;28;20080;-59
2023/12/18 03:31:33;;;;;;;6.22;2.13;;;;;;;-144.57;100.00;62443.72;5053666;28;20262;-59
2023/12/18 03:33:58;;;;;;;3.72;2.03;;;;;;;-144.57;100.00;62443.72;5054191;28;20188;-57
2023/12/18 03:36:24;;;;;;;7.30;2.45;;;;;;;-144.57;100.00;62443.72;5036054;28;20045;-60
2023/12/18 03:38:50;;;;;;;7.00;2.30;;;;;;;-144.57;100.00;62443.72;5035870;28;20127;-60
2023/12/18 03:41:16;;;;;;;5.35;1.92;;;;;;;-144.57;100.00;62443.72;5035451;28;20048;-58
2023/12/18 03:43:41;;;;;;;6.32;2.10;;;;;;;-144.57;100.00;62443.72;5053838;28;20048;-59
2023/12/18 03:46:07;;;;;;;7.97;2.20;;;;;;;-144.57;100.00;62443.72;5053693;28;20087;-58
2023/12/18 03:48:33;;;;;;;4.82;1.73;;;;;;;-144.57;100.00;62443.72;5043991;28;20134;-58
2023/12/18 03:50:59;;;;;;;4.03;2.28;;;;;;;-144.57;100.00;62443.72;5015831;28;20049;-59
2023/12/18 03:53:24;;;;;;;11.02;2.63;;;;;;;-144.57;100.00;62443.72;5015662;28;20133;-57
2023/12/18 03:55:50;;;;;;;9.63;2.35;;;;;;;-144.57;100.00;62443.72;5032706;28;20047;-60
2023/12/18 03:58:16;;;;;;;9.60;2.25;;;;;;;-144.57;100.00;62443.72;5015746;28;20048;-58
2023/12/18 04:00:42;;;;;;;5.63;2.17;;;;;;;-144.57;100.00;62443.72;5015821;28;20041;-59
2023/12/18 04:03:08;;;;;;;6.72;2.25;;;;;;;-144.57;100.00;62443.72;5033384;28;20095;-58
2023/12/18 04:05:33;;;;;;;4.85;2.30;;;;;;;-144.57;100.00;62443.72;5032860;28;20046;-57
2023/12/18 04:07:59;;;;;;;5.88;2.65;;;;;;;-144.57;100.00;62443.72;5015207;28;20045;-58
2023/12/18 04:10:25;;;;;;;7.28;2.47;;;;;;;-144.57;100.00;62443.72;4999279;28;20080;-60
2023/12/18 04:12:51;;;;;;;7.05;2.50;;;;;;;-144.57;100.00;62443.72;5015470;28;20049;-59
2023/12/18 04:15:18;;;;;;;6.30;2.20;;;;;;;-144.57;100.00;62443.72;5033092;28;20128;-58
2023/12/18 04:17:44;;;;;;;8.57;3.03;;;;;;;-144.57;100.00;62443.72;5015390;28;20053;-59
2023/12/18 04:20:10;;;;;;;9.90;3.80;;;;;;;-144.57;100.00;62443.72;5015165;28;20045;-57
2023/12/18 04:22:37;;;;;;;9.57;4.20;;;;;;;-144.57;100.00;62443.72;5032929;28;20570;-56
2023/12/18 04:25:03;;;;;;;11.43;4.15;;;;;;;-144.57;100.00;62443.72;5015061;28;20064;-59
2023/12/18 04:27:31;;;;;;;10.38;4.13;;;;;;;-144.57;100.00;62443.72;5032040;28;20136;-60
2023/12/18 04:29:58;;;;;;;15.48;5.00;;;;;;;-144.57;100.00;62443.72;5032637;28;20076;-60
2023/12/18 04:32:26;;;;;;;15.02;5.47;;;;;;;-144.57;100.00;62443.72;5032306;28;20066;-58
2023/12/18 04:34:52;;;;;;;13.50;5.57;;;;;;;-144.57;100.00;62443.72;5032759;28;20046;-58
2023/12/18 04:37:17;;;;;;;13.48;4.85;;;;;;;-144.57;100.00;62443.72;5015047;28;20106;-59
2023/12/18 04:39:43;;;;;;;11.18;5.10;;;;;;;-144.57;100.00;62443.72;5032439;28;20041;-57
2023/12/18 04:42:09;;;;;;;13.77;5.25;;;;;;;-144.57;100.00;62443.72;5050438;28;20056;-59
2023/12/18 04:44:34;;;;;;;8.57;4.15;;;;;;;-144.57;100.00;62443.72;5052576;28;20076;-59
2023/12/18 04:47:01;;;;;;;9.63;4.55;;;;;;;-144.57;100.00;62443.72;5052467;28;20544;-57
2023/12/18 04:49:27;;;;;;;16.88;5.65;;;;;;;-144.57;100.00;62443.72;5017731;28;20053;-58
2023/12/18 04:51:52;;;;;;;24.50;8.40;;;;;;;-144.57;100.00;62443.72;5031737;28;20037;-58
2023/12/18 04:54:18;;;;;;;23.42;9.27;;;;;;;-144.57;100.00;62443.72;5014693;28;20049;-58
2023/12/18 04:56:44;;;;;;;26.80;10.40;;;;;;;-144.57;100.00;62443.72;5032229;28;20506;-60
2023/12/18 04:59:13;;;;;;;19.33;8.35;;;;;;;-144.57;100.00;62443.72;5014631;28;20541;-58
2023/12/18 05:01:39;;;;;;;14.88;7.03;;;;;;;-144.57;100.00;62443.72;5032123;28;20068;-58
2023/12/18 05:04:05;;;;;;;19.20;7.50;;;;;;;-144.57;100.00;62443.72;5012891;28;20462;-59
2023/12/18 05:06:31;;;;;;;17.38;7.15;;;;;;;-144.57;100.00;62443.72;5031975;28;20037;-60
2023/12/18 05:08:57;;;;;;;18.40;6.32;;;;;;;-144.57;100.00;62443.72;5031895;28;20049;-56
2023/12/18 05:11:26;;;;;;;21.23;7.00;;;;;;;-144.57;100.00;62443.72;5032282;28;20069;-60
2023/12/18 05:13:52;;;;;;;21.88;7.22;;;;;;;-144.57;100.00;62443.72;5032265;28;20124;-59
2023/12/18 05:16:18;;;;;;;20.63;7.05;;;;;;;-144.57;100.00;62443.72;5031841;28;20601;-60
2023/12/18 05:18:45;;;;;;;10.57;4.45;;;;;;;-144.57;100.00;62443.72;5014370;28;20060;-59
2023/12/18 05:21:13;;;;;;;9.98;5.10;;;;;;;-144.57;100.00;62443.72;5031303;28;20486;-62
2023/12/18 05:23:39;;;;;;;21.10;8.90;;;;;;;-144.57;100.00;62443.72;5031551;28;20507;-60
2023/12/18 05:26:06;;;;;;;31.45;11.05;;;;;;;-144.57;100.00;62443.72;5011930;28;20056;-61
2023/12/18 05:28:32;;;;;;;23.98;9.32;;;;;;;-144.57;100.00;62443.72;5011941;28;20046;-59
2023/12/18 05:30:57;;;;;;;29.60;12.13;;;;;;;-144.57;100.00;62443.72;5030017;28;20037;-61
2023/12/18 05:33:25;;;;;;;23.58;9.43;;;;;;;-144.57;100.00;62443.72;5030628;28;20107;-59
2023/12/18 05:35:51;;;;;;;19.85;7.25;;;;;;;-144.57;100.00;62443.72;5031656;28;20493;-59
2023/12/18 05:38:17;;;;;;;20.42;8.00;;;;;;;-144.57;100.00;62443.72;5012477;28;20384;-60
2023/12/18 05:40:43;;;;;;;26.25;9.15;;;;;;;-144.57;100.00;62443.72;5013998;28;20056;-62
2023/12/18 05:43:08;;;;;;;41.95;13.00;;;;;;;-144.57;100.00;62443.72;5031743;28;20053;-61
2023/12/18 05:45:34;;;;;;;56.70;17.83;;;;;;;-144.57;100.00;62443.72;5031534;28;20037;-63
2023/12/18 05:48:00;;;;;;;54.40;18.00;;;;;;;-144.57;100.00;62443.72;5030570;28;20483;-62
2023/12/18 05:50:26;;;;;;;53.38;16.38;;;;;;;-144.57;100.00;62443.72;5030946;28;20041;-63
2023/12/18 05:52:52;;;;;;;27.30;8.90;;;;;;;-144.57;100.00;62443.72;5030832;28;20057;-63
2023/12/18 05:55:18;;;;;;;13.77;5.50;;;;;;;-144.57;100.00;62443.72;5013606;28;20042;-63
2023/12/18 05:57:44;;;;;;;12.65;4.43;;;;;;;-144.57;100.00;62443.72;5031002;28;20049;-62
2023/12/18 06:00:10;;;;;;;23.27;7.03;;;;;;;-144.57;100.00;62443.72;5030654;28;20131;-63
2023/12/18 06:02:37;;;;;;;22.30;7.50;;;;;;;-144.57;100.00;62443.72;5013616;28;20046;-62
2023/12/18 06:05:03;;;;;;;29.05;9.00;;;;;;;-144.57;100.00;62443.72;5013606;28;20041;-63
2023/12/18 06:07:31;;;;;;;26.92;9.98;;;;;;;-144.57;100.00;62443.72;5031156;28;20057;-62
2023/12/18 06:09:58;;;;;;;19.45;7.05;;;;;;;-144.57;100.00;62443.72;5030973;28;20120;-64
2023/12/18 06:12:24;;;;;;;9.73;5.10;;;;;;;-144.57;100.00;62443.72;5031288;28;20049;-60
2023/12/18 06:14:50;;;;;;;8.15;3.58;;;;;;;-144.57;100.00;62443.72;5029259;28;20050;-61
2023/12/18 06:17:17;;;;;;;17.52;5.05;;;;;;;-144.57;100.00;62443.72;5029670;28;20048;-61
2023/12/18 06:19:43;;;;;;;17.60;4.97;;;;;;;-144.57;100.00;62443.72;5030388;28;20418;-62
2023/12/18 06:22:11;;;;;;;11.10;4.50;;;;;;;-144.57;100.00;62443.72;5029587;28;20462;-61
2023/12/18 06:24:40;;;;;;;9.95;4.13;;;;;;;-144.57;100.00;62443.72;5030870;28;20403;-61
2023/12/18 06:27:06;;;;;;;9.38;4.20;;;;;;;-144.57;100.00;62443.72;5031176;28;20534;-61
2023/12/18 06:29:32;;;;;;;10.45;3.35;;;;;;;-144.57;100.00;62443.72;5030389;28;20505;-61
2023/12/18 06:31:58;;;;;;;6.53;3.13;;;;;;;-144.57;100.00;62443.72;5030616;28;20081;-61
2023/12/18 06:34:24;;;;;;;6.18;2.83;;;;;;;-144.57;100.00;62443.72;5030828;28;20140;-62
2023/12/18 06:36:50;;;;;;;7.50;3.03;;;;;;;-144.57;100.00;62443.72;5030957;28;20407;-62
2023/12/18 06:39:16;;;;;;;5.82;2.65;;;;;;;-144.57;100.00;62443.72;5006431;28;20053;-61
2023/12/18 06:41:41;;;;;;;7.28;3.08;;;;;;;-144.57;100.00;62443.72;5030584;28;20051;-63
2023/12/18 06:44:07;;;;;;;6.75;2.80;;;;;;;-144.57;100.00;62443.72;5029046;28;20145;-61
2023/12/18 06:46:34;;;;;;;6.85;2.95;;;;;;;-144.57;100.00;62443.72;5030743;28;20120;-60
2023/12/18 06:49:01;;;;;;;5.47;2.65;;;;;;;-144.57;100.00;62443.72;5030377;28;20546;-60
2023/12/18 06:51:27;;;;;;;6.38;2.72;;;;;;;-144.57;100.00;62443.72;5033270;28;20049;-61
2023/12/18 06:53:53;;;;;;;7.20;3.42;;;;;;;-144.57;100.00;62443.72;5034170;28;20061;-60
2023/12/18 06:56:19;;;;;;;6.30;2.40;;;;;;;-144.57;100.00;62443.72;5034505;28;20632;-63
2023/12/18 06:58:44;;;;;;;6.63;2.50;;;;;;;-144.57;100.00;62443.72;5032922;28;20132;-60
2023/12/18 07:01:10;;;;;;;9.85;3.63;;;;;;;-144.57;100.00;62443.72;5032647;28;20045;-62
2023/12/18 07:03:36;;;;;;;9.10;3.45;;;;;;;-144.57;100.00;62443.72;5032573;28;20042;-60
2023/12/18 07:06:02;;;;;;;3.88;2.45;;;;;;;-144.57;100.00;62443.72;5031913;28;20053;-60
2023/12/18 07:08:29;;;;;;;6.53;2.40;;;;;;;-144.57;100.00;62443.72;5033337;28;20049;-61
2023/12/18 07:10:57;;;;;;;6.30;2.70;;;;;;;-144.57;100.00;62443.72;5031928;28;20065;-62
2023/12/18 07:13:23;;;;;;;4.20;2.35;;;;;;;-144.57;100.00;62443.72;5033402;28;20064;-59
2023/12/18 07:15:49;;;;;;;10.45;3.75;;;;;;;-144.57;100.00;62443.72;5033721;28;20132;-62
2023/12/18 07:18:14;;;;;;;12.05;4.50;;;;;;;-144.57;100.00;62443.72;5015563;28;20132;-60
2023/12/18 07:20:44;;;;;;;15.98;5.55;;;;;;;-144.57;100.00;62443.72;5023436;28;20045;-61
2023/12/18 07:23:10;;;;;;;19.23;6.70;;;;;;;-144.57;100.00;62443.72;4999679;28;20391;-61
2023/12/18 07:25:37;;;;;;;14.80;6.40;;;;;;;-144.57;100.00;62443.72;5033189;28;20505;-60
2023/12/18 07:28:09;;;;;;;19.38;7.05;;;;;;;-144.57;100.00;62443.72;5015208;28;20108;-60
2023/12/18 07:30:38;;;;;;;15.50;7.10;;;;;;;-144.57;100.00;62443.72;5034156;28;20037;-60
2023/12/18 07:33:04;;;;;;;16.65;6.72;;;;;;;-144.57;100.00;62443.72;5024419;28;20069;-60
2023/12/18 07:35:30;;;;;;;12.38;5.97;;;;;;;-144.57;100.00;62443.72;5014871;28;20247;-58
2023/12/18 07:37:56;;;;;;;18.20;7.70;;;;;;;-144.57;100.00;62443.72;5008457;28;20103;-58
2023/12/18 07:40:22;;;;;;;15.68;6.65;;;;;;;-144.57;100.00;62443.72;5015769;28;20037;-60
2023/12/18 07:42:48;;;;;;;17.00;6.40;;;;;;;-144.57;100.00;62443.72;5032053;28;20056;-60
2023/12/18 07:45:14;;;;;;;15.70;6.85;;;;;;;-144.57;100.00;62443.72;5033573;28;20065;-60
2023/12/18 07:47:41;;;;;;;24.02;8.85;;;;;;;-144.57;100.00;62443.72;5033328;28;20131;-60
2023/12/18 07:50:08;;;;;;;23.13;8.20;;;;;;;-144.57;100.00;62443.72;5033449;28;20042;-59
2023/12/18 07:52:34;;;;;;;34.67;10.95;;;;;;;-144.57;100.00;62443.72;5032996;28;20507;-59
2023/12/18 07:55:00;;;;;;;43.15;14.80;;;;;;;-144.57;100.00;62443.72;5035865;28;20084;-59
2023/12/18 07:57:26;;;;;;;39.75;13.68;;;;;;;-144.57;100.00;62443.72;5041818;28;20047;-60
2023/12/18 07:59:54;;;;;;;26.42;10.27;;;;;;;-144.57;100.00;62443.72;5033296;28;20045;-60
2023/12/18 08:02:19;;;;;;;18.23;8.98;;;;;;;-144.57;100.00;62443.72;5032685;28;20103;-60
2023/12/18 08:04:45;;;;;;;15.40;6.28;;;;;;;-144.57;100.00;62443.72;5031809;28;20423;-58
2023/12/18 08:07:11;;;;;;;9.63;4.32;;;;;;;-144.57;100.00;62443.72;5003727;28;20041;-59
2023/12/18 08:09:37;;;;;;;19.58;6.82;;;;;;;-144.57;100.00;62443.72;5032513;28;20577;-59
2023/12/18 08:12:03;;;;;;;27.50;10.88;;;;;;;-144.57;100.00;62443.72;5032889;28;20034;-58
2023/12/18 08:14:29;;;;;;;16.13;7.47;;;;;;;-144.57;100.00;62443.72;5031539;28;20033;-59
2023/12/18 08:16:55;;;;;;;15.23;5.55;;;;;;;-144.57;100.00;62443.72;5032869;28;20522;-61
2023/12/18 08:19:21;;;;;;;10.77;4.45;;;;;;;-144.57;100.00;62443.72;5032854;28;20049;-58
2023/12/18 08:21:47;;;;;;;6.47;3.05;;;;;;;-144.57;100.00;62443.72;5003894;28;20072;-60
2023/12/18 08:24:12;;;;;;;5.93;3.35;;;;;;;-144.57;100.00;62443.72;5033112;28;20392;-59
2023/12/18 08:26:38;;;;;;;11.02;4.07;;;;;;;-144.57;100.00;62443.72;5032424;28;20045;-61
2023/12/18 08:29:04;;;;;;;4.75;2.50;;;;;;;-144.57;100.00;62443.72;5014388;28;20469;-59
2023/12/18 08:31:30;;;;;;;4.93;2.97;;;;;;;-144.57;100.00;62443.72;5030954;28;20535;-60
2023/12/18 08:33:56;;;;;;;4.35;2.25;;;;;;;-144.57;100.00;62443.72;5030924;28;20048;-59
2023/12/18 08:36:22;;;;;;;6.82;2.72;;;;;;;-144.57;100.00;62443.72;5032193;28;20037;-60
2023/12/18 08:38:48;;;;;;;4.38;2.47;;;;;;;-144.57;100.00;62443.72;5032531;28;20041;-61
2023/12/18 08:41:14;;;;;;;4.68;2.60;;;;;;;-144.57;100.00;62443.72;5030530;28;20515;-59
2023/12/18 08:43:42;;;;;;;4.72;2.63;;;;;;;-144.57;100.00;62443.72;5032692;28;20072;-60
2023/12/18 08:46:08;;;;;;;5.90;2.90;;;;;;;-144.57;100.00;62443.72;5030846;28;20040;-57
2023/12/18 08:48:33;;;;;;;9.43;3.90;;;;;;;-144.57;100.00;62443.72;5032038;28;20064;-58
2023/12/18 08:50:59;;;;;;;5.20;3.10;;;;;;;-144.57;100.00;62443.72;5032131;28;20073;-61
2023/12/18 08:53:25;;;;;;;7.07;3.05;;;;;;;-144.57;100.00;62443.72;5032318;28;20049;-59
2023/12/18 08:55:51;;;;;;;4.65;2.90;;;;;;;-144.57;100.00;62443.72;5032092;28;20080;-58
2023/12/18 08:58:17;;;;;;;5.40;2.80;;;;;;;-144.57;100.00;62443.72;5031941;28;20049;-60
2023/12/18 09:00:43;;;;;;;4.88;2.83;;;;;;;-144.57;100.00;62443.72;5032226;28;20053;-59
2023/12/18 09:03:22;;;;;;;6.43;3.10;;;;;;;-144.57;100.00;62443.72;5031445;28;20380;-56
2023/12/18 09:05:52;;;;;;;6.75;2.97;;;;;;;-144.57;100.00;62443.72;4979851;28;20040;-59
2023/12/18 09:08:18;;;;;;;8.40;3.60;;;;;;;-144.57;100.00;62443.72;5030576;28;20042;-60
2023/12/18 09:10:44;;;;;;;8.40;3.53;;;;;;;-144.57;100.00;62443.72;5031825;28;20076;-62
2023/12/18 09:13:10;;;;;;;5.32;2.80;;;;;;;-144.57;100.00;62443.72;5030949;28;20073;-60
2023/12/18 09:15:40;;;;;;;4.95;2.97;;;;;;;-144.57;100.00;62443.72;5030172;28;20034;-61
2023/12/18 09:18:06;;;;;;;6.65;3.35;;;;;;;-144.57;100.00;62443.72;5030813;28;20050;-59
2023/12/18 09:20:33;;;;;;;3.67;2.30;;;;;;;-144.57;100.00;62443.72;5031684;28;20068;-60
2023/12/18 09:22:58;;;;;;;6.28;2.78;;;;;;;-144.57;100.00;62443.72;5031183;28;20494;-60
2023/12/18 09:25:24;;;;;;;6.63;3.05;;;;;;;-144.57;100.00;62443.72;5013405;28;20068;-60
2023/12/18 09:27:50;;;;;;;6.93;3.05;;;;;;;-144.57;100.00;62443.72;5030204;28;20046;-60
2023/12/18 09:30:16;;;;;;;3.17;2.53;;;;;;;-144.57;100.00;62443.72;5031070;28;20076;-60
2023/12/18 09:32:42;;;;;;;4.35;3.00;;;;;;;-144.57;100.00;62443.72;5012810;28;20060;-61
2023/12/18 09:35:08;;;;;;;5.63;3.05;;;;;;;-144.57;100.00;62443.72;5030821;28;20040;-61
2023/12/18 09:37:34;;;;;;;6.25;2.95;;;;;;;-144.57;100.00;62443.72;5030160;28;20045;-60
2023/12/18 09:39:59;;;;;;;5.97;3.33;;;;;;;-144.57;100.00;62443.72;5031431;28;20072;-63
2023/12/18 09:42:25;;;;;;;7.25;3.30;;;;;;;-144.57;100.00;62443.72;5031248;28;20128;-59
2023/12/18 09:44:51;;;;;;;7.80;3.05;;;;;;;-144.57;100.00;62443.72;5031386;28;20045;-60
2023/12/18 09:47:17;;;;;;;6.38;3.45;;;;;;;-144.57;100.00;62443.72;5030053;28;20072;-59
2023/12/18 09:49:44;;;;;;;7.95;3.20;;;;;;;-144.57;100.00;62443.72;5014278;28;20630;-59
2023/12/18 09:52:11;;;;;;;7.50;3.47;;;;;;;-144.57;100.00;62443.72;5031284;28;20057;-60
2023/12/18 09:54:40;;;;;;;4.00;3.00;;;;;;;-144.57;100.00;62443.72;5013548;28;20057;-59
2023/12/18 09:57:07;;;;;;;6.88;3.70;;;;;;;-144.57;100.00;62443.72;5027176;28;20566;-60
2023/12/18 09:59:33;;;;;;;5.07;3.60;;;;;;;-144.57;100.00;62443.72;5013437;28;20037;-60
2023/12/18 10:01:59;;;;;;;3.88;2.70;;;;;;;-144.57;100.00;62443.72;5025649;28;20091;-59
2023/12/18 10:04:25;;;;;;;5.80;3.35;;;;;;;-144.57;100.00;62443.72;5031122;28;20042;-61
2023/12/18 10:06:51;;;;;;;9.65;3.50;;;;;;;-144.57;100.00;62443.72;5019151;28;20051;-61
2023/12/18 10:09:17;;;;;;;7.28;3.38;;;;;;;-144.57;100.00;62443.72;4997385;28;20084;-59
2023/12/18 10:11:46;;;;;;;6.75;3.70;;;;;;;-144.57;100.00;62443.72;5031038;28;20042;-59
2023/12/18 10:14:16;;;;;;;9.23;3.90;;;;;;;-144.57;100.00;62443.72;5013512;28;20049;-59
2023/12/18 10:16:42;;;;;;;7.22;3.88;;;;;;;-144.57;100.00;62443.72;5023384;28;20038;-60
2023/12/18 10:19:10;;;;;;;5.70;3.63;;;;;;;-144.57;100.00;62443.72;5029484;28;20096;-59
2023/12/18 10:21:39;;;;;;;5.82;3.58;;;;;;;-144.57;100.00;62443.72;5029300;28;20099;-61
2023/12/18 10:24:07;;;;;;;8.57;4.03;;;;;;;-144.57;100.00;62443.72;5029901;28;20045;-60
2023/12/18 10:26:33;;;;;;;6.05;3.50;;;;;;;-144.57;100.00;62443.72;5033184;28;20037;-61
2023/12/18 10:29:01;;;;;;;5.80;3.45;;;;;;;-144.57;100.00;62443.72;5034775;28;20102;-61
2023/12/18 10:31:27;;;;;;;5.65;3.38;;;;;;;-144.57;100.00;62443.72;5034275;28;20052;-60
2023/12/18 10:33:54;;;;;;;6.75;3.60;;;;;;;-144.57;100.00;62443.72;5016625;28;20061;-58
2023/12/18 10:36:22;;;;;;;6.18;3.50;;;;;;;-144.57;100.00;62443.72;5033565;28;20084;-61
2023/12/18 10:38:50;;;;;;;6.10;3.67;;;;;;;-144.57;100.00;62443.72;5034952;28;20056;-60
2023/12/18 10:41:22;;;;;;;5.70;3.65;;;;;;;-144.57;100.00;62443.72;5034526;28;20092;-60
2023/12/18 10:43:49;;;;;;;8.70;3.72;;;;;;;-144.57;100.00;62443.72;5034226;28;20045;-58
2023/12/18 10:46:15;;;;;;;10.50;4.25;;;;;;;-144.57;100.00;62443.72;5022914;28;20041;-60
2023/12/18 10:48:42;;;;;;;5.43;3.78;;;;;;;-144.57;100.00;62443.72;5025558;28;20136;-61
2023/12/18 10:51:09;;;;;;;9.45;3.55;;;;;;;-144.57;100.00;62443.72;5034298;28;20033;-61
2023/12/18 10:53:37;;;;;;;9.00;4.03;;;;;;;-144.57;100.00;62443.72;5034208;28;20092;-60
2023/12/18 10:56:04;;;;;;;5.70;3.40;;;;;;;-144.57;100.00;62443.72;5004606;28;20069;-60
2023/12/18 10:58:30;;;;;;;7.53;3.90;;;;;;;-144.57;100.00;62443.72;5033259;28;20076;-59
2023/12/18 11:00:56;;;;;;;5.75;3.45;;;;;;;-144.57;100.00;62443.72;5034133;28;20498;-62
2023/12/18 11:03:26;;;;;;;6.25;3.25;;;;;;;-144.57;100.00;62443.72;5022411;28;20379;-58